Terminal Aerodrome Forecast
Issued by NWS Jackson, KY

Home | Current Version | Previous Version | Text Only | Print | Product List | Glossary On
Versions: 1 2 3 4 5 6 7 8 9 10 11 12 13 14 15 16 17 18 19
000
FTUS43 KJKL 191700
TAFLOZ
TAF
KLOZ 191736Z 1918/2018 VRB03KT P6SM FEW025 SCT250
     FM201100 00000KT 6SM BR BKN250
     FM201200 27002KT P6SM BKN250=

USA.gov is the U.S. government's official web portal to all federal, state and local government web resources and services.